San Diego, CA (92101)

2:29 PM PDT on September 04, 2015 (GMT -0700)
Columbia District | | Change Station
CLOSE
Current Station
Personal Weather Station
Location: San Diego, CA
Elevation: 23 ft
Nearby Weather Stations
Active Advisory: Beach Hazard Statement

Elev 23 ft 32.72 °N, 117.17 °W | Updated 7 seconds ago

Partly Cloudy
Partly Cloudy
71.1 °F
Feels Like 74 °F
N
2.7
Wind Variable Wind from SW
Gusts 4.9 mph

Today
High -- | Low -- °F
--% Chance of Precip.
Yesterday
High -- | Low -- °F
Precip. -- in
6:25 AM 7:09 PM
Waning Gibbous, 56% visible
Pressure 29.89 in
Visibility 10.0 miles
Clouds Few 3500 ft
Heat Index 74 °F
Dew Point 60 °F
Humidity 69%
Rainfall 0.00 in
Snow Depth Not available.
UV 5.0 out of 12
Pollen 7.70 out of 12
Air Quality Not available.
Flu Activity Not available.
METAR KSAN 042051Z 28010G16KT 10SM FEW035 24/14 A2989 RMK AO2 SLP120 T02390139 58010
Pressure 29.89 in
Visibility 10.0 miles
Clouds Few 3500 ft
Heat Index 74 °F
Dew Point 60 °F
Humidity 69%
Rainfall 0.00 in
Snow Depth Not available.
UV 5.0 out of 12
Pollen 7.70 out of 12
Air Quality Not available.
Flu Activity Not available.
METAR KSAN 042051Z 28010G16KT 10SM FEW035 24/14 A2989 RMK AO2 SLP120 T02390139 58010

10-Day Weather Forecast

×

Almanac

Astronomy

Sep. 04, 2015 Rise Set
Actual Time
Civil Twilight
Nautical Twilight
Astronomical Twilight
Moon
Length of Visible Light
Length of Day
Tomorrow will be .
, % of the Moon is Illuminated

Today's Extremes

State Highs State Lows

Community

WunderPhotos

Upload Photos

1,852,297 photos uploaded!

WunderBlogs® & News

Nearby

Air Quality

  Air Quality AQ Index Pollutant
Not available.

Snow Depth

Station Depth Elevation

Earthquake Activity

City Distance Mag. Time & Date
Minimum magnitude displayed is 2.5.

Coastal Water Temperatures

Place Temperature

Stations

Nearby Weather Stations

Station Location Temp. Windchill Dew Point Humidity Wind Precip. Elev Updated Type
                   
Beach Hazard Statement
Statement as of 1:46 PM PDT on September 04, 2015

... Beach hazards statement remains in effect from Saturday
morning through Tuesday evening...

* waves and surf... building to 4 to 6 feet with 7 to 8 foot sets
on south and southwest facing beaches.

* Timing... surf building during the day Saturday... peaking Sunday
into Monday... and remaining elevated through Tuesday.

* Impacts... strong and frequent rip and longshore currents will
create hazardous swimming conditions.

Precautionary/preparedness actions...

A beach hazards statement for rip currents means that conditions
are present to support a heightened risk of strong rip currents.
Rip currents are typically more frequent and stronger in the
vicinity of jetties... inlets... and piers. Swimmers caught in a
rip current should swim parallel to the coast to escape the rip
current before trying to swim for shore. Swimmers should always
swim near a lifeguard.


Jt

Http://www.Weather.Gov/sandiego